sensor_id;sensor_type;location;lat;lon;timestamp;P1;durP1;ratioP1;P2;durP2;ratioP2
57746;SDS011;43580;44.014;20.466;2023-02-22T00:00:58;202.57;;;98.05;;
57746;SDS011;43580;44.014;20.466;2023-02-22T00:03:32;201.98;;;100.80;;
57746;SDS011;43580;44.014;20.466;2023-02-22T00:05:59;179.07;;;90.28;;
57746;SDS011;43580;44.014;20.466;2023-02-22T00:08:32;171.75;;;87.70;;
57746;SDS011;43580;44.014;20.466;2023-02-22T00:10:59;186.02;;;91.25;;
57746;SDS011;43580;44.014;20.466;2023-02-22T00:13:32;216.95;;;107.95;;
57746;SDS011;43580;44.014;20.466;2023-02-22T00:15:59;139.75;;;65.70;;
57746;SDS011;43580;44.014;20.466;2023-02-22T00:18:27;224.20;;;113.53;;
57746;SDS011;43580;44.014;20.466;2023-02-22T00:20:54;137.35;;;66.45;;
57746;SDS011;43580;44.014;20.466;2023-02-22T00:23:24;133.30;;;69.38;;
57746;SDS011;43580;44.014;20.466;2023-02-22T00:25:53;137.60;;;62.53;;
57746;SDS011;43580;44.014;20.466;2023-02-22T00:28:25;140.32;;;64.65;;
57746;SDS011;43580;44.014;20.466;2023-02-22T00:30:51;135.93;;;62.60;;
57746;SDS011;43580;44.014;20.466;2023-02-22T00:33:18;127.15;;;59.03;;
57746;SDS011;43580;44.014;20.466;2023-02-22T00:35:44;123.97;;;57.17;;
57746;SDS011;43580;44.014;20.466;2023-02-22T00:38:11;120.72;;;56.00;;
57746;SDS011;43580;44.014;20.466;2023-02-22T00:40:40;128.55;;;56.00;;
57746;SDS011;43580;44.014;20.466;2023-02-22T00:43:06;135.95;;;62.22;;
57746;SDS011;43580;44.014;20.466;2023-02-22T00:45:33;124.00;;;58.05;;
57746;SDS011;43580;44.014;20.466;2023-02-22T00:48:00;111.70;;;50.47;;
57746;SDS011;43580;44.014;20.466;2023-02-22T00:50:27;106.53;;;51.58;;
57746;SDS011;43580;44.014;20.466;2023-02-22T00:52:53;99.30;;;49.72;;
57746;SDS011;43580;44.014;20.466;2023-02-22T00:55:28;95.65;;;48.38;;
57746;SDS011;43580;44.014;20.466;2023-02-22T01:00:25;81.95;;;40.72;;
57746;SDS011;43580;44.014;20.466;2023-02-22T01:02:52;90.55;;;42.63;;
57746;SDS011;43580;44.014;20.466;2023-02-22T01:05:21;96.47;;;48.50;;
57746;SDS011;43580;44.014;20.466;2023-02-22T01:07:48;127.88;;;61.50;;
57746;SDS011;43580;44.014;20.466;2023-02-22T01:10:16;122.18;;;59.55;;
57746;SDS011;43580;44.014;20.466;2023-02-22T01:12:43;111.63;;;57.88;;
57746;SDS011;43580;44.014;20.466;2023-02-22T01:15:09;124.25;;;60.38;;
57746;SDS011;43580;44.014;20.466;2023-02-22T01:17:39;132.98;;;66.85;;
57746;SDS011;43580;44.014;20.466;2023-02-22T01:20:08;136.10;;;69.10;;
57746;SDS011;43580;44.014;20.466;2023-02-22T01:22:36;137.88;;;71.30;;
57746;SDS011;43580;44.014;20.466;2023-02-22T01:25:17;141.23;;;72.95;;
57746;SDS011;43580;44.014;20.466;2023-02-22T01:27:43;138.98;;;70.05;;
57746;SDS011;43580;44.014;20.466;2023-02-22T01:30:10;134.20;;;67.60;;
57746;SDS011;43580;44.014;20.466;2023-02-22T01:32:37;122.93;;;64.28;;
57746;SDS011;43580;44.014;20.466;2023-02-22T01:35:09;121.32;;;58.83;;
57746;SDS011;43580;44.014;20.466;2023-02-22T01:37:37;116.70;;;57.67;;
57746;SDS011;43580;44.014;20.466;2023-02-22T01:40:05;116.10;;;57.55;;
57746;SDS011;43580;44.014;20.466;2023-02-22T01:42:32;113.05;;;58.08;;
57746;SDS011;43580;44.014;20.466;2023-02-22T01:47:43;117.13;;;57.47;;
57746;SDS011;43580;44.014;20.466;2023-02-22T01:50:11;105.88;;;55.25;;
57746;SDS011;43580;44.014;20.466;2023-02-22T01:52:37;102.55;;;52.65;;
57746;SDS011;43580;44.014;20.466;2023-02-22T01:55:03;100.68;;;51.58;;
57746;SDS011;43580;44.014;20.466;2023-02-22T01:57:31;100.72;;;53.83;;
57746;SDS011;43580;44.014;20.466;2023-02-22T01:59:59;104.07;;;62.83;;
57746;SDS011;43580;44.014;20.466;2023-02-22T02:02:25;127.95;;;76.30;;
57746;SDS011;43580;44.014;20.466;2023-02-22T02:04:52;99.70;;;53.10;;
57746;SDS011;43580;44.014;20.466;2023-02-22T02:07:20;122.95;;;80.45;;
57746;SDS011;43580;44.014;20.466;2023-02-22T02:09:49;89.90;;;47.97;;
57746;SDS011;43580;44.014;20.466;2023-02-22T02:12:17;85.60;;;45.40;;
57746;SDS011;43580;44.014;20.466;2023-02-22T02:14:43;86.15;;;45.58;;
57746;SDS011;43580;44.014;20.466;2023-02-22T02:17:12;85.43;;;43.63;;
57746;SDS011;43580;44.014;20.466;2023-02-22T02:20:00;81.22;;;43.38;;
57746;SDS011;43580;44.014;20.466;2023-02-22T02:27:54;69.40;;;37.10;;
57746;SDS011;43580;44.014;20.466;2023-02-22T02:40:51;70.57;;;36.90;;
57746;SDS011;43580;44.014;20.466;2023-02-22T02:45:57;79.20;;;40.08;;
57746;SDS011;43580;44.014;20.466;2023-02-22T02:48:26;75.60;;;38.20;;
57746;SDS011;43580;44.014;20.466;2023-02-22T02:50:53;90.43;;;43.13;;
57746;SDS011;43580;44.014;20.466;2023-02-22T02:53:21;100.95;;;51.47;;
57746;SDS011;43580;44.014;20.466;2023-02-22T02:55:49;105.70;;;50.95;;
57746;SDS011;43580;44.014;20.466;2023-02-22T02:58:17;128.30;;;59.35;;
57746;SDS011;43580;44.014;20.466;2023-02-22T03:00:44;124.15;;;61.35;;
57746;SDS011;43580;44.014;20.466;2023-02-22T03:08:45;104.10;;;53.17;;
57746;SDS011;43580;44.014;20.466;2023-02-22T03:11:18;87.57;;;43.90;;
57746;SDS011;43580;44.014;20.466;2023-02-22T03:16:33;68.70;;;35.42;;
57746;SDS011;43580;44.014;20.466;2023-02-22T03:19:18;68.05;;;36.97;;
57746;SDS011;43580;44.014;20.466;2023-02-22T03:24:24;77.10;;;38.47;;
57746;SDS011;43580;44.014;20.466;2023-02-22T03:26:58;77.10;;;35.85;;
57746;SDS011;43580;44.014;20.466;2023-02-22T03:29:27;66.35;;;34.15;;
57746;SDS011;43580;44.014;20.466;2023-02-22T03:31:56;57.42;;;31.55;;
57746;SDS011;43580;44.014;20.466;2023-02-22T03:34:29;70.72;;;31.65;;
57746;SDS011;43580;44.014;20.466;2023-02-22T03:36:58;59.67;;;29.35;;
57746;SDS011;43580;44.014;20.466;2023-02-22T03:39:25;57.00;;;28.15;;
57746;SDS011;43580;44.014;20.466;2023-02-22T03:41:55;59.67;;;29.67;;
57746;SDS011;43580;44.014;20.466;2023-02-22T03:44:23;56.08;;;28.60;;
57746;SDS011;43580;44.014;20.466;2023-02-22T03:46:58;57.72;;;27.58;;
57746;SDS011;43580;44.014;20.466;2023-02-22T03:52:21;55.33;;;28.08;;
57746;SDS011;43580;44.014;20.466;2023-02-22T03:54:50;58.67;;;28.25;;
57746;SDS011;43580;44.014;20.466;2023-02-22T03:57:21;49.00;;;26.00;;
57746;SDS011;43580;44.014;20.466;2023-02-22T03:59:49;61.67;;;29.73;;
57746;SDS011;43580;44.014;20.466;2023-02-22T04:02:16;65.28;;;30.40;;
57746;SDS011;43580;44.014;20.466;2023-02-22T04:04:43;68.43;;;33.58;;
57746;SDS011;43580;44.014;20.466;2023-02-22T04:07:09;59.22;;;29.85;;
57746;SDS011;43580;44.014;20.466;2023-02-22T04:09:35;63.65;;;30.80;;
57746;SDS011;43580;44.014;20.466;2023-02-22T04:12:01;67.80;;;33.40;;
57746;SDS011;43580;44.014;20.466;2023-02-22T04:14:28;78.43;;;39.33;;
57746;SDS011;43580;44.014;20.466;2023-02-22T04:16:54;79.47;;;39.33;;
57746;SDS011;43580;44.014;20.466;2023-02-22T04:19:20;87.85;;;43.58;;
57746;SDS011;43580;44.014;20.466;2023-02-22T04:21:46;106.70;;;48.97;;
57746;SDS011;43580;44.014;20.466;2023-02-22T04:24:13;108.63;;;50.97;;
57746;SDS011;43580;44.014;20.466;2023-02-22T04:26:39;97.72;;;49.13;;
57746;SDS011;43580;44.014;20.466;2023-02-22T04:29:05;100.93;;;50.80;;
57746;SDS011;43580;44.014;20.466;2023-02-22T04:31:32;109.63;;;52.45;;
57746;SDS011;43580;44.014;20.466;2023-02-22T04:34:01;110.47;;;54.25;;
57746;SDS011;43580;44.014;20.466;2023-02-22T04:36:27;111.03;;;54.42;;
57746;SDS011;43580;44.014;20.466;2023-02-22T04:38:56;112.13;;;56.92;;
57746;SDS011;43580;44.014;20.466;2023-02-22T04:41:22;104.85;;;52.63;;
57746;SDS011;43580;44.014;20.466;2023-02-22T04:43:48;91.47;;;46.45;;
57746;SDS011;43580;44.014;20.466;2023-02-22T04:46:14;126.63;;;62.75;;
57746;SDS011;43580;44.014;20.466;2023-02-22T04:48:41;119.38;;;61.63;;
57746;SDS011;43580;44.014;20.466;2023-02-22T04:51:07;114.55;;;58.08;;
57746;SDS011;43580;44.014;20.466;2023-02-22T04:53:34;115.47;;;58.40;;
57746;SDS011;43580;44.014;20.466;2023-02-22T04:56:02;99.47;;;53.22;;
57746;SDS011;43580;44.014;20.466;2023-02-22T04:58:29;103.40;;;51.95;;
57746;SDS011;43580;44.014;20.466;2023-02-22T05:00:55;102.82;;;57.47;;
57746;SDS011;43580;44.014;20.466;2023-02-22T05:03:21;146.68;;;87.45;;
57746;SDS011;43580;44.014;20.466;2023-02-22T05:05:47;96.38;;;53.75;;
57746;SDS011;43580;44.014;20.466;2023-02-22T05:08:13;75.72;;;42.15;;
57746;SDS011;43580;44.014;20.466;2023-02-22T05:10:42;71.45;;;38.05;;
57746;SDS011;43580;44.014;20.466;2023-02-22T05:13:08;68.03;;;38.33;;
57746;SDS011;43580;44.014;20.466;2023-02-22T05:15:34;77.35;;;46.50;;
57746;SDS011;43580;44.014;20.466;2023-02-22T05:18:00;57.08;;;32.35;;
57746;SDS011;43580;44.014;20.466;2023-02-22T05:20:28;67.50;;;39.60;;
57746;SDS011;43580;44.014;20.466;2023-02-22T05:22:57;112.93;;;67.60;;
57746;SDS011;43580;44.014;20.466;2023-02-22T05:25:24;71.85;;;39.55;;
57746;SDS011;43580;44.014;20.466;2023-02-22T05:27:51;53.80;;;32.08;;
57746;SDS011;43580;44.014;20.466;2023-02-22T05:30:21;64.30;;;40.22;;
57746;SDS011;43580;44.014;20.466;2023-02-22T05:32:48;60.63;;;35.53;;
57746;SDS011;43580;44.014;20.466;2023-02-22T05:35:14;55.85;;;31.30;;
57746;SDS011;43580;44.014;20.466;2023-02-22T05:37:40;70.20;;;41.63;;
57746;SDS011;43580;44.014;20.466;2023-02-22T05:40:07;68.90;;;36.25;;
57746;SDS011;43580;44.014;20.466;2023-02-22T05:42:33;71.57;;;36.22;;
57746;SDS011;43580;44.014;20.466;2023-02-22T05:44:59;93.97;;;50.20;;
57746;SDS011;43580;44.014;20.466;2023-02-22T05:47:25;114.03;;;58.33;;
57746;SDS011;43580;44.014;20.466;2023-02-22T05:49:52;111.47;;;55.88;;
57746;SDS011;43580;44.014;20.466;2023-02-22T05:52:18;106.88;;;57.95;;
57746;SDS011;43580;44.014;20.466;2023-02-22T05:54:49;134.57;;;69.15;;
57746;SDS011;43580;44.014;20.466;2023-02-22T05:57:17;146.30;;;75.40;;
57746;SDS011;43580;44.014;20.466;2023-02-22T05:59:43;107.53;;;54.70;;
57746;SDS011;43580;44.014;20.466;2023-02-22T06:02:09;110.15;;;52.90;;
57746;SDS011;43580;44.014;20.466;2023-02-22T06:04:35;88.03;;;44.38;;
57746;SDS011;43580;44.014;20.466;2023-02-22T06:07:01;102.95;;;49.90;;
57746;SDS011;43580;44.014;20.466;2023-02-22T06:09:30;103.75;;;47.83;;
57746;SDS011;43580;44.014;20.466;2023-02-22T06:11:56;105.53;;;54.00;;
57746;SDS011;43580;44.014;20.466;2023-02-22T06:14:22;128.93;;;66.85;;
57746;SDS011;43580;44.014;20.466;2023-02-22T06:16:52;139.70;;;73.95;;
57746;SDS011;43580;44.014;20.466;2023-02-22T06:19:19;161.57;;;80.00;;
57746;SDS011;43580;44.014;20.466;2023-02-22T06:21:48;136.73;;;69.07;;
57746;SDS011;43580;44.014;20.466;2023-02-22T06:24:17;116.97;;;60.45;;
57746;SDS011;43580;44.014;20.466;2023-02-22T06:26:43;117.05;;;61.22;;
57746;SDS011;43580;44.014;20.466;2023-02-22T06:29:09;225.05;;;118.05;;
57746;SDS011;43580;44.014;20.466;2023-02-22T06:31:35;195.10;;;109.47;;
57746;SDS011;43580;44.014;20.466;2023-02-22T06:34:01;178.68;;;95.55;;
57746;SDS011;43580;44.014;20.466;2023-02-22T06:36:28;179.02;;;93.15;;
57746;SDS011;43580;44.014;20.466;2023-02-22T06:38:55;157.00;;;83.15;;
57746;SDS011;43580;44.014;20.466;2023-02-22T06:41:24;152.30;;;81.97;;
57746;SDS011;43580;44.014;20.466;2023-02-22T06:43:50;100.55;;;52.30;;
57746;SDS011;43580;44.014;20.466;2023-02-22T06:46:16;91.47;;;53.80;;
57746;SDS011;43580;44.014;20.466;2023-02-22T06:48:43;108.95;;;59.00;;
57746;SDS011;43580;44.014;20.466;2023-02-22T06:51:09;95.65;;;54.00;;
57746;SDS011;43580;44.014;20.466;2023-02-22T06:53:35;89.78;;;48.45;;
57746;SDS011;43580;44.014;20.466;2023-02-22T06:56:01;84.82;;;48.70;;
57746;SDS011;43580;44.014;20.466;2023-02-22T06:58:28;74.47;;;43.58;;
57746;SDS011;43580;44.014;20.466;2023-02-22T07:00:54;80.88;;;44.58;;
57746;SDS011;43580;44.014;20.466;2023-02-22T07:03:20;82.22;;;46.17;;
57746;SDS011;43580;44.014;20.466;2023-02-22T07:05:46;68.85;;;38.80;;
57746;SDS011;43580;44.014;20.466;2023-02-22T07:08:12;71.28;;;42.00;;
57746;SDS011;43580;44.014;20.466;2023-02-22T07:10:38;103.78;;;52.75;;
57746;SDS011;43580;44.014;20.466;2023-02-22T07:13:05;125.68;;;78.85;;
57746;SDS011;43580;44.014;20.466;2023-02-22T07:15:33;204.82;;;116.50;;
57746;SDS011;43580;44.014;20.466;2023-02-22T07:18:01;194.40;;;127.45;;
57746;SDS011;43580;44.014;20.466;2023-02-22T07:20:28;99.38;;;55.92;;
57746;SDS011;43580;44.014;20.466;2023-02-22T07:22:55;139.90;;;85.85;;
57746;SDS011;43580;44.014;20.466;2023-02-22T07:25:21;84.65;;;49.53;;
57746;SDS011;43580;44.014;20.466;2023-02-22T07:27:52;81.20;;;44.38;;
57746;SDS011;43580;44.014;20.466;2023-02-22T07:30:20;88.53;;;51.15;;
57746;SDS011;43580;44.014;20.466;2023-02-22T07:32:49;107.57;;;65.22;;
57746;SDS011;43580;44.014;20.466;2023-02-22T07:35:19;106.55;;;67.80;;
57746;SDS011;43580;44.014;20.466;2023-02-22T07:37:46;62.88;;;38.85;;
57746;SDS011;43580;44.014;20.466;2023-02-22T07:40:13;134.63;;;98.35;;
57746;SDS011;43580;44.014;20.466;2023-02-22T07:45:30;54.43;;;28.57;;
57746;SDS011;43580;44.014;20.466;2023-02-22T07:47:56;54.47;;;29.27;;
57746;SDS011;43580;44.014;20.466;2023-02-22T07:50:23;57.65;;;28.55;;
57746;SDS011;43580;44.014;20.466;2023-02-22T07:52:53;51.65;;;32.67;;
57746;SDS011;43580;44.014;20.466;2023-02-22T07:55:24;63.40;;;38.20;;
57746;SDS011;43580;44.014;20.466;2023-02-22T07:57:54;67.57;;;41.88;;
57746;SDS011;43580;44.014;20.466;2023-02-22T08:00:25;73.35;;;46.67;;
57746;SDS011;43580;44.014;20.466;2023-02-22T08:02:51;89.00;;;60.72;;
57746;SDS011;43580;44.014;20.466;2023-02-22T08:05:18;68.65;;;43.45;;
57746;SDS011;43580;44.014;20.466;2023-02-22T08:07:47;75.95;;;49.58;;
57746;SDS011;43580;44.014;20.466;2023-02-22T08:10:16;60.95;;;39.72;;
57746;SDS011;43580;44.014;20.466;2023-02-22T08:12:43;66.03;;;41.08;;
57746;SDS011;43580;44.014;20.466;2023-02-22T08:15:15;66.75;;;42.05;;
57746;SDS011;43580;44.014;20.466;2023-02-22T08:17:41;77.30;;;52.70;;
57746;SDS011;43580;44.014;20.466;2023-02-22T08:20:12;98.53;;;64.85;;
57746;SDS011;43580;44.014;20.466;2023-02-22T08:22:41;51.95;;;32.47;;
57746;SDS011;43580;44.014;20.466;2023-02-22T08:25:10;58.83;;;31.90;;
57746;SDS011;43580;44.014;20.466;2023-02-22T08:27:37;49.75;;;28.60;;
57746;SDS011;43580;44.014;20.466;2023-02-22T08:30:10;33.78;;;19.00;;
57746;SDS011;43580;44.014;20.466;2023-02-22T08:32:38;74.60;;;47.90;;
57746;SDS011;43580;44.014;20.466;2023-02-22T08:35:04;37.15;;;20.25;;
57746;SDS011;43580;44.014;20.466;2023-02-22T08:37:31;63.67;;;44.63;;
57746;SDS011;43580;44.014;20.466;2023-02-22T08:39:57;50.22;;;27.65;;
57746;SDS011;43580;44.014;20.466;2023-02-22T08:42:25;48.60;;;30.90;;
57746;SDS011;43580;44.014;20.466;2023-02-22T08:44:54;43.30;;;26.73;;
57746;SDS011;43580;44.014;20.466;2023-02-22T08:47:20;43.53;;;22.25;;
57746;SDS011;43580;44.014;20.466;2023-02-22T08:49:48;45.72;;;23.13;;
57746;SDS011;43580;44.014;20.466;2023-02-22T08:52:18;52.33;;;30.42;;
57746;SDS011;43580;44.014;20.466;2023-02-22T08:54:45;52.00;;;31.63;;
57746;SDS011;43580;44.014;20.466;2023-02-22T08:57:11;67.07;;;40.50;;
57746;SDS011;43580;44.014;20.466;2023-02-22T08:59:37;49.72;;;32.90;;
57746;SDS011;43580;44.014;20.466;2023-02-22T09:02:03;40.58;;;25.45;;
57746;SDS011;43580;44.014;20.466;2023-02-22T09:04:29;53.80;;;29.55;;
57746;SDS011;43580;44.014;20.466;2023-02-22T09:06:55;48.75;;;29.10;;
57746;SDS011;43580;44.014;20.466;2023-02-22T09:09:21;48.17;;;29.20;;
57746;SDS011;43580;44.014;20.466;2023-02-22T09:11:48;48.15;;;29.60;;
57746;SDS011;43580;44.014;20.466;2023-02-22T09:14:16;63.53;;;35.50;;
57746;SDS011;43580;44.014;20.466;2023-02-22T09:16:43;56.63;;;34.92;;
57746;SDS011;43580;44.014;20.466;2023-02-22T09:19:09;46.20;;;26.88;;
57746;SDS011;43580;44.014;20.466;2023-02-22T09:21:36;40.58;;;23.60;;
57746;SDS011;43580;44.014;20.466;2023-02-22T09:24:02;36.55;;;20.98;;
57746;SDS011;43580;44.014;20.466;2023-02-22T09:26:33;29.75;;;17.27;;
57746;SDS011;43580;44.014;20.466;2023-02-22T09:29:06;27.33;;;14.88;;
57746;SDS011;43580;44.014;20.466;2023-02-22T09:31:37;24.45;;;12.80;;
57746;SDS011;43580;44.014;20.466;2023-02-22T09:34:04;27.60;;;16.98;;
57746;SDS011;43580;44.014;20.466;2023-02-22T09:36:37;26.50;;;14.05;;
57746;SDS011;43580;44.014;20.466;2023-02-22T09:39:03;24.30;;;13.48;;
57746;SDS011;43580;44.014;20.466;2023-02-22T09:41:32;50.10;;;27.73;;
57746;SDS011;43580;44.014;20.466;2023-02-22T09:44:12;33.50;;;18.02;;
57746;SDS011;43580;44.014;20.466;2023-02-22T09:46:40;31.98;;;16.73;;
57746;SDS011;43580;44.014;20.466;2023-02-22T09:54:10;20.05;;;12.18;;
57746;SDS011;43580;44.014;20.466;2023-02-22T09:56:39;48.20;;;26.40;;
57746;SDS011;43580;44.014;20.466;2023-02-22T09:59:06;47.33;;;30.27;;
57746;SDS011;43580;44.014;20.466;2023-02-22T10:01:35;21.25;;;8.52;;
57746;SDS011;43580;44.014;20.466;2023-02-22T10:09:21;7.82;;;4.65;;
57746;SDS011;43580;44.014;20.466;2023-02-22T10:11:58;14.73;;;5.80;;
57746;SDS011;43580;44.014;20.466;2023-02-22T10:25:00;10.65;;;5.95;;
57746;SDS011;43580;44.014;20.466;2023-02-22T10:27:41;13.27;;;5.78;;
57746;SDS011;43580;44.014;20.466;2023-02-22T10:30:33;203.23;;;121.50;;
57746;SDS011;43580;44.014;20.466;2023-02-22T10:33:03;81.55;;;55.40;;
57746;SDS011;43580;44.014;20.466;2023-02-22T10:35:32;40.90;;;28.20;;
57746;SDS011;43580;44.014;20.466;2023-02-22T10:37:59;21.08;;;12.80;;
57746;SDS011;43580;44.014;20.466;2023-02-22T10:40:27;19.23;;;11.73;;
57746;SDS011;43580;44.014;20.466;2023-02-22T10:42:57;21.85;;;15.48;;
57746;SDS011;43580;44.014;20.466;2023-02-22T10:45:25;21.85;;;13.68;;
57746;SDS011;43580;44.014;20.466;2023-02-22T10:47:53;29.30;;;17.05;;
57746;SDS011;43580;44.014;20.466;2023-02-22T10:50:20;28.65;;;19.55;;
57746;SDS011;43580;44.014;20.466;2023-02-22T10:52:47;429.27;;;204.60;;
57746;SDS011;43580;44.014;20.466;2023-02-22T10:55:13;115.00;;;56.03;;
57746;SDS011;43580;44.014;20.466;2023-02-22T10:57:40;27.85;;;16.50;;
57746;SDS011;43580;44.014;20.466;2023-02-22T11:02:59;13.43;;;8.77;;
57746;SDS011;43580;44.014;20.466;2023-02-22T11:05:33;24.13;;;9.50;;
57746;SDS011;43580;44.014;20.466;2023-02-22T11:08:12;15.10;;;9.43;;
57746;SDS011;43580;44.014;20.466;2023-02-22T11:10:39;17.95;;;11.90;;
57746;SDS011;43580;44.014;20.466;2023-02-22T11:13:27;29.73;;;16.77;;
57746;SDS011;43580;44.014;20.466;2023-02-22T11:15:54;27.55;;;14.38;;
57746;SDS011;43580;44.014;20.466;2023-02-22T11:18:27;14.60;;;9.15;;
57746;SDS011;43580;44.014;20.466;2023-02-22T11:20:57;16.35;;;8.73;;
57746;SDS011;43580;44.014;20.466;2023-02-22T11:23:24;15.80;;;9.93;;
57746;SDS011;43580;44.014;20.466;2023-02-22T11:25:50;14.40;;;8.02;;
57746;SDS011;43580;44.014;20.466;2023-02-22T11:28:28;12.95;;;8.52;;
57746;SDS011;43580;44.014;20.466;2023-02-22T11:30:57;11.60;;;6.75;;
57746;SDS011;43580;44.014;20.466;2023-02-22T11:33:24;11.32;;;7.55;;
57746;SDS011;43580;44.014;20.466;2023-02-22T11:38:26;15.48;;;7.28;;
57746;SDS011;43580;44.014;20.466;2023-02-22T11:41:14;14.50;;;7.70;;
57746;SDS011;43580;44.014;20.466;2023-02-22T11:43:39;16.38;;;8.68;;
57746;SDS011;43580;44.014;20.466;2023-02-22T11:46:11;16.80;;;9.90;;
57746;SDS011;43580;44.014;20.466;2023-02-22T11:48:38;14.52;;;8.20;;
57746;SDS011;43580;44.014;20.466;2023-02-22T11:51:13;19.05;;;10.27;;
57746;SDS011;43580;44.014;20.466;2023-02-22T11:54:44;19.48;;;10.95;;
57746;SDS011;43580;44.014;20.466;2023-02-22T11:56:42;16.23;;;8.63;;
57746;SDS011;43580;44.014;20.466;2023-02-22T12:01:53;25.40;;;13.50;;
57746;SDS011;43580;44.014;20.466;2023-02-22T12:21:54;10.48;;;5.65;;
57746;SDS011;43580;44.014;20.466;2023-02-22T12:24:22;8.55;;;4.03;;
57746;SDS011;43580;44.014;20.466;2023-02-22T12:26:52;11.05;;;4.75;;
57746;SDS011;43580;44.014;20.466;2023-02-22T12:29:27;7.70;;;4.75;;
57746;SDS011;43580;44.014;20.466;2023-02-22T12:32:05;10.23;;;6.10;;
57746;SDS011;43580;44.014;20.466;2023-02-22T12:34:49;10.98;;;4.53;;
57746;SDS011;43580;44.014;20.466;2023-02-22T12:37:23;12.00;;;5.60;;
57746;SDS011;43580;44.014;20.466;2023-02-22T12:45:39;20.67;;;12.05;;
57746;SDS011;43580;44.014;20.466;2023-02-22T12:50:40;7.68;;;5.18;;
57746;SDS011;43580;44.014;20.466;2023-02-22T12:55:41;11.18;;;6.30;;
57746;SDS011;43580;44.014;20.466;2023-02-22T12:58:43;9.90;;;5.18;;
57746;SDS011;43580;44.014;20.466;2023-02-22T13:01:04;11.52;;;6.13;;
57746;SDS011;43580;44.014;20.466;2023-02-22T13:14:28;10.30;;;4.53;;
57746;SDS011;43580;44.014;20.466;2023-02-22T13:16:57;14.50;;;5.03;;
57746;SDS011;43580;44.014;20.466;2023-02-22T13:22:12;11.00;;;5.72;;
57746;SDS011;43580;44.014;20.466;2023-02-22T13:27:10;11.45;;;5.30;;
57746;SDS011;43580;44.014;20.466;2023-02-22T13:29:40;7.15;;;4.55;;
57746;SDS011;43580;44.014;20.466;2023-02-22T13:48:00;16.90;;;5.13;;
57746;SDS011;43580;44.014;20.466;2023-02-22T13:50:33;7.28;;;4.60;;
57746;SDS011;43580;44.014;20.466;2023-02-22T13:55:31;14.70;;;5.95;;
57746;SDS011;43580;44.014;20.466;2023-02-22T13:58:02;12.13;;;6.07;;
57746;SDS011;43580;44.014;20.466;2023-02-22T14:00:48;16.20;;;6.38;;
57746;SDS011;43580;44.014;20.466;2023-02-22T14:13:07;24.00;;;13.07;;
57746;SDS011;43580;44.014;20.466;2023-02-22T14:15:33;12.60;;;5.15;;
57746;SDS011;43580;44.014;20.466;2023-02-22T14:18:05;9.93;;;5.88;;
57746;SDS011;43580;44.014;20.466;2023-02-22T14:20:40;16.83;;;6.93;;
57746;SDS011;43580;44.014;20.466;2023-02-22T14:25:54;20.35;;;10.18;;
57746;SDS011;43580;44.014;20.466;2023-02-22T14:31:09;15.00;;;9.82;;
57746;SDS011;43580;44.014;20.466;2023-02-22T14:36:28;13.32;;;8.07;;
57746;SDS011;43580;44.014;20.466;2023-02-22T14:39:00;18.90;;;8.30;;
57746;SDS011;43580;44.014;20.466;2023-02-22T14:41:28;17.75;;;8.55;;
57746;SDS011;43580;44.014;20.466;2023-02-22T14:43:55;31.13;;;16.73;;
57746;SDS011;43580;44.014;20.466;2023-02-22T14:46:22;26.98;;;14.88;;
57746;SDS011;43580;44.014;20.466;2023-02-22T14:48:50;18.52;;;9.88;;
57746;SDS011;43580;44.014;20.466;2023-02-22T14:51:32;12.57;;;6.82;;
57746;SDS011;43580;44.014;20.466;2023-02-22T14:56:29;16.30;;;11.00;;
57746;SDS011;43580;44.014;20.466;2023-02-22T15:01:32;15.32;;;8.82;;
57746;SDS011;43580;44.014;20.466;2023-02-22T15:06:43;16.35;;;8.88;;
57746;SDS011;43580;44.014;20.466;2023-02-22T15:11:39;22.63;;;9.70;;
57746;SDS011;43580;44.014;20.466;2023-02-22T15:14:13;18.75;;;9.77;;
57746;SDS011;43580;44.014;20.466;2023-02-22T15:16:40;18.08;;;9.88;;
57746;SDS011;43580;44.014;20.466;2023-02-22T15:19:11;18.40;;;9.10;;
57746;SDS011;43580;44.014;20.466;2023-02-22T15:21:39;28.77;;;8.93;;
57746;SDS011;43580;44.014;20.466;2023-02-22T15:24:09;33.38;;;14.65;;
57746;SDS011;43580;44.014;20.466;2023-02-22T15:26:45;20.85;;;12.38;;
57746;SDS011;43580;44.014;20.466;2023-02-22T15:29:27;22.08;;;11.70;;
57746;SDS011;43580;44.014;20.466;2023-02-22T15:31:56;23.33;;;13.77;;
57746;SDS011;43580;44.014;20.466;2023-02-22T15:34:29;22.25;;;11.98;;
57746;SDS011;43580;44.014;20.466;2023-02-22T15:36:56;16.83;;;11.27;;
57746;SDS011;43580;44.014;20.466;2023-02-22T15:42:07;40.80;;;28.00;;
57746;SDS011;43580;44.014;20.466;2023-02-22T15:44:42;27.20;;;19.48;;
57746;SDS011;43580;44.014;20.466;2023-02-22T15:47:15;40.58;;;19.67;;
57746;SDS011;43580;44.014;20.466;2023-02-22T15:49:41;32.75;;;15.00;;
57746;SDS011;43580;44.014;20.466;2023-02-22T15:52:13;25.40;;;15.63;;
57746;SDS011;43580;44.014;20.466;2023-02-22T15:54:44;31.50;;;16.05;;
57746;SDS011;43580;44.014;20.466;2023-02-22T15:57:14;38.92;;;19.15;;
57746;SDS011;43580;44.014;20.466;2023-02-22T15:59:43;51.47;;;26.88;;
57746;SDS011;43580;44.014;20.466;2023-02-22T16:07:34;103.20;;;67.47;;
57746;SDS011;43580;44.014;20.466;2023-02-22T16:10:02;63.05;;;38.22;;
57746;SDS011;43580;44.014;20.466;2023-02-22T16:12:33;68.05;;;44.05;;
57746;SDS011;43580;44.014;20.466;2023-02-22T16:15:01;55.70;;;35.33;;
57746;SDS011;43580;44.014;20.466;2023-02-22T16:17:37;49.65;;;34.20;;
57746;SDS011;43580;44.014;20.466;2023-02-22T16:22:42;61.40;;;37.47;;
57746;SDS011;43580;44.014;20.466;2023-02-22T16:27:47;122.13;;;69.95;;
57746;SDS011;43580;44.014;20.466;2023-02-22T16:32:43;63.95;;;41.53;;
57746;SDS011;43580;44.014;20.466;2023-02-22T16:35:10;95.53;;;65.03;;
57746;SDS011;43580;44.014;20.466;2023-02-22T16:37:51;110.88;;;68.57;;
57746;SDS011;43580;44.014;20.466;2023-02-22T16:40:38;120.72;;;75.30;;
57746;SDS011;43580;44.014;20.466;2023-02-22T16:43:12;123.63;;;73.65;;
57746;SDS011;43580;44.014;20.466;2023-02-22T16:45:39;111.45;;;64.40;;
57746;SDS011;43580;44.014;20.466;2023-02-22T16:48:24;100.47;;;57.38;;
57746;SDS011;43580;44.014;20.466;2023-02-22T16:53:17;83.70;;;47.97;;
57746;SDS011;43580;44.014;20.466;2023-02-22T16:55:44;80.78;;;49.70;;
57746;SDS011;43580;44.014;20.466;2023-02-22T16:58:11;69.75;;;43.92;;
57746;SDS011;43580;44.014;20.466;2023-02-22T17:00:38;97.03;;;59.90;;
57746;SDS011;43580;44.014;20.466;2023-02-22T17:03:06;87.70;;;54.53;;
57746;SDS011;43580;44.014;20.466;2023-02-22T17:05:35;93.32;;;54.50;;
57746;SDS011;43580;44.014;20.466;2023-02-22T17:08:04;96.93;;;58.55;;
57746;SDS011;43580;44.014;20.466;2023-02-22T17:10:30;122.72;;;72.55;;
57746;SDS011;43580;44.014;20.466;2023-02-22T17:12:56;110.82;;;63.33;;
57746;SDS011;43580;44.014;20.466;2023-02-22T17:15:26;97.10;;;57.28;;